Time;durP1;ratioP1;P1;durP2;ratioP2;P2;SDS_P1;SDS_P2;PMS_P1;PMS_P2;Temp;Humidity;BMP_temperature;BMP_pressure;BME280_temperature;BME280_humidity;BME280_pressure;Samples;Min_cycle;Max_cycle;Signal;HPM_P1;HPM_P2
2021/09/20 00:01:41;;;;;;;23.87;21.40;;;;;;;18.41;100.00;99574.14;1728192;81;21092;-59
2021/09/20 00:04:09;;;;;;;23.10;20.60;;;;;;;18.26;100.00;99572.69;1728240;81;21048;-66
2021/09/20 00:06:35;;;;;;;25.00;22.37;;;;;;;18.33;100.00;99577.23;1728617;81;21193;-60
2021/09/20 00:09:02;;;;;;;23.23;20.83;;;;;;;18.39;100.00;99584.16;1732298;81;21024;-61
2021/09/20 00:11:29;;;;;;;26.00;22.20;;;;;;;18.32;100.00;99584.89;1729306;81;21119;-60
2021/09/20 00:13:55;;;;;;;25.67;22.40;;;;;;;18.36;100.00;99587.30;1728715;81;21094;-60
2021/09/20 00:16:24;;;;;;;32.23;22.70;;;;;;;18.20;100.00;99596.39;1727760;81;21051;-59
2021/09/20 00:18:52;;;;;;;22.37;20.17;;;;;;;18.33;100.00;99598.34;1731428;81;21019;-59
2021/09/20 00:21:18;;;;;;;25.90;23.00;;;;;;;18.38;100.00;99601.05;1730698;81;20980;-60
2021/09/20 00:23:45;;;;;;;23.53;21.03;;;;;;;18.39;100.00;99599.47;1728579;81;21015;-59
2021/09/20 00:26:13;;;;;;;25.10;21.83;;;;;;;18.29;100.00;99598.05;1730932;81;20999;-66
2021/09/20 00:28:39;;;;;;;23.53;20.97;;;;;;;18.33;100.00;99603.09;1728415;81;22523;-59
2021/09/20 00:31:07;;;;;;;26.20;22.77;;;;;;;18.34;100.00;99601.28;1729748;81;21680;-59
2021/09/20 00:33:35;;;;;;;23.40;21.00;;;;;;;18.36;100.00;99599.17;1733704;81;21483;-59
2021/09/20 00:36:02;;;;;;;25.73;22.40;;;;;;;18.37;100.00;99603.39;1727842;81;21596;-60
2021/09/20 00:38:30;;;;;;;25.37;22.77;;;;;;;18.29;100.00;99599.37;1727634;81;21029;-61
2021/09/20 00:40:56;;;;;;;24.57;21.90;;;;;;;18.45;100.00;99595.84;1728302;81;21129;-59
2021/09/20 00:43:24;;;;;;;24.90;22.20;;;;;;;18.62;100.00;99597.02;1728231;81;20991;-59
2021/09/20 00:45:51;;;;;;;23.53;21.07;;;;;;;18.32;100.00;99590.17;1726828;81;21516;-66
2021/09/20 00:48:17;;;;;;;24.73;22.10;;;;;;;18.07;100.00;99593.34;1728229;81;21446;-65
2021/09/20 00:50:45;;;;;;;25.37;22.67;;;;;;;17.93;100.00;99591.11;1734297;81;21102;-60
2021/09/20 00:53:12;;;;;;;24.07;21.63;;;;;;;18.00;100.00;99589.60;1728536;81;21099;-59
2021/09/20 00:55:44;;;;;;;25.43;22.67;;;;;;;17.94;100.00;99585.30;1727925;81;21033;-66
2021/09/20 00:58:12;;;;;;;25.03;22.37;;;;;;;17.90;100.00;99588.16;1699683;81;21055;-66
2021/09/20 01:00:38;;;;;;;28.23;25.33;;;;;;;17.97;100.00;99582.97;1728141;81;21024;-59
2021/09/20 01:03:05;;;;;;;26.93;23.77;;;;;;;18.03;100.00;99575.10;1728691;81;21495;-61
2021/09/20 01:05:32;;;;;;;25.57;22.63;;;;;;;17.80;100.00;99577.50;1728479;81;20939;-61
2021/09/20 01:07:59;;;;;;;25.47;22.63;;;;;;;17.75;100.00;99579.03;1730191;81;21098;-60
2021/09/20 01:10:27;;;;;;;26.77;23.97;;;;;;;17.64;100.00;99585.20;1728433;81;21042;-66
2021/09/20 01:12:53;;;;;;;26.87;24.17;;;;;;;17.76;100.00;99591.69;1731834;81;20921;-59
2021/09/20 01:15:19;;;;;;;27.13;24.23;;;;;;;17.87;100.00;99584.70;1730295;81;21058;-59
2021/09/20 01:17:46;;;;;;;25.70;22.90;;;;;;;17.97;100.00;99580.33;1728798;81;21069;-60
2021/09/20 01:20:14;;;;;;;26.70;23.70;;;;;;;17.79;100.00;99581.98;1728995;81;21149;-60
2021/09/20 01:22:42;;;;;;;26.53;23.57;;;;;;;17.84;100.00;99586.02;1732476;81;21031;-59
2021/09/20 01:25:10;;;;;;;28.27;24.77;;;;;;;17.71;100.00;99591.09;1725394;81;21084;-59
2021/09/20 01:27:36;;;;;;;28.23;25.20;;;;;;;17.60;100.00;99588.58;1727534;81;20980;-62
2021/09/20 01:30:06;;;;;;;26.13;23.43;;;;;;;17.70;100.00;99584.23;1728347;81;21065;-59
2021/09/20 01:32:32;;;;;;;30.17;26.90;;;;;;;17.63;100.00;99582.83;1727656;81;21936;-60
2021/09/20 01:34:59;;;;;;;27.87;25.03;;;;;;;17.72;100.00;99580.81;1728934;81;21087;-60
2021/09/20 01:37:26;;;;;;;28.27;25.23;;;;;;;17.89;100.00;99569.44;1730485;81;20996;-66
2021/09/20 01:39:53;;;;;;;28.57;25.00;;;;;;;17.75;100.00;99578.25;1727743;81;20964;-59
2021/09/20 01:42:19;;;;;;;29.83;26.60;;;;;;;17.62;100.00;99575.44;1730295;81;21051;-66
2021/09/20 01:44:47;;;;;;;29.37;26.20;;;;;;;17.38;100.00;99580.13;1729885;81;21145;-59
2021/09/20 01:47:13;;;;;;;27.93;25.03;;;;;;;17.58;100.00;99569.07;1731550;81;20958;-60
2021/09/20 01:49:40;;;;;;;26.97;24.07;;;;;;;17.55;100.00;99568.77;1727694;81;21714;-64
2021/09/20 01:52:06;;;;;;;28.27;25.37;;;;;;;17.43;100.00;99571.52;1729986;81;21782;-59
2021/09/20 01:54:33;;;;;;;29.30;26.23;;;;;;;17.31;100.00;99567.66;1730947;81;21063;-66
2021/09/20 01:56:59;;;;;;;28.30;25.30;;;;;;;16.87;100.00;99568.12;1727917;81;21161;-59
2021/09/20 01:59:27;;;;;;;27.93;25.10;;;;;;;16.96;100.00;99563.50;1728557;81;21047;-62
2021/09/20 02:01:53;;;;;;;26.63;23.87;;;;;;;16.93;100.00;99561.88;1730119;81;21111;-59
2021/09/20 02:04:20;;;;;;;31.87;28.47;;;;;;;16.61;100.00;99553.74;1726844;81;21492;-59
2021/09/20 02:06:46;;;;;;;28.30;25.30;;;;;;;16.92;100.00;99557.66;1715694;81;21032;-59
2021/09/20 02:09:13;;;;;;;25.93;23.23;;;;;;;16.70;100.00;99554.40;1719261;81;21156;-59
2021/09/20 02:11:39;;;;;;;29.43;24.80;;;;;;;16.92;100.00;99550.55;1718373;81;20972;-63
2021/09/20 02:14:06;;;;;;;29.50;26.40;;;;;;;16.66;100.00;99543.28;1717614;81;21102;-59
2021/09/20 02:16:33;;;;;;;27.77;24.83;;;;;;;16.49;100.00;99549.88;1717514;81;21039;-66
2021/09/20 02:18:59;;;;;;;26.70;23.57;;;;;;;16.35;100.00;99548.59;1718349;81;21369;-59
2021/09/20 02:21:26;;;;;;;28.90;24.73;;;;;;;16.16;100.00;99550.11;1717095;81;21151;-67
2021/09/20 02:23:52;;;;;;;27.93;24.83;;;;;;;16.26;100.00;99552.92;1719513;80;21033;-58
2021/09/20 02:26:18;;;;;;;29.20;26.17;;;;;;;16.30;100.00;99555.88;1720272;81;21284;-58
2021/09/20 02:28:45;;;;;;;33.20;26.77;;;;;;;16.16;100.00;99549.32;1715963;81;22229;-59
2021/09/20 02:31:11;;;;;;;28.10;24.90;;;;;;;16.23;100.00;99552.08;1716587;81;21150;-60
2021/09/20 02:33:39;;;;;;;28.87;24.60;;;;;;;15.93;100.00;99550.23;1718019;81;21156;-66
2021/09/20 02:36:07;;;;;;;29.80;26.30;;;;;;;15.78;100.00;99542.34;1718996;81;21092;-59
2021/09/20 02:38:34;;;;;;;29.57;26.30;;;;;;;15.78;100.00;99539.70;1716602;81;21581;-65
2021/09/20 02:41:00;;;;;;;27.10;24.20;;;;;;;15.67;100.00;99534.50;1717254;81;21132;-58
2021/09/20 02:43:28;;;;;;;28.53;24.23;;;;;;;15.75;100.00;99530.97;1718687;81;21000;-59
2021/09/20 02:45:55;;;;;;;27.00;24.10;;;;;;;15.72;100.00;99534.58;1695798;82;21106;-59
2021/09/20 02:48:22;;;;;;;29.17;24.83;;;;;;;15.77;100.00;99530.76;1701661;82;21091;-59
2021/09/20 02:50:48;;;;;;;27.60;24.63;;;;;;;15.74;100.00;99532.53;1697953;82;20921;-58
2021/09/20 02:53:15;;;;;;;27.10;23.47;;;;;;;15.84;100.00;99534.05;1693165;83;21024;-59
2021/09/20 02:55:42;;;;;;;27.83;24.90;;;;;;;15.71;100.00;99528.53;1694493;83;21014;-66
2021/09/20 02:58:09;;;;;;;28.17;25.27;;;;;;;15.49;100.00;99526.23;1691986;83;21570;-59
2021/09/20 03:00:36;;;;;;;27.23;24.20;;;;;;;15.49;100.00;99522.30;1707135;79;21055;-65
2021/09/20 03:03:02;;;;;;;27.33;24.53;;;;;;;15.95;100.00;99524.52;1778557;79;20985;-60
2021/09/20 03:05:29;;;;;;;27.63;24.73;;;;;;;15.83;100.00;99529.80;1781515;79;21087;-67
2021/09/20 03:07:55;;;;;;;29.73;26.53;;;;;;;15.93;100.00;99523.95;1745626;80;21615;-60
2021/09/20 03:10:23;;;;;;;31.53;26.60;;;;;;;15.96;100.00;99526.90;1785002;79;20956;-61
2021/09/20 03:12:50;;;;;;;36.50;29.77;;;;;;;16.07;100.00;99535.77;1780772;79;20918;-61
2021/09/20 03:15:16;;;;;;;33.80;29.37;;;;;;;16.25;100.00;99538.68;1749902;80;20891;-60
2021/09/20 03:17:44;;;;;;;34.53;29.70;;;;;;;16.22;100.00;99539.97;1781024;79;20947;-66
2021/09/20 03:20:13;;;;;;;35.47;29.40;;;;;;;16.15;100.00;99535.37;1787687;79;20963;-60
2021/09/20 03:22:40;;;;;;;32.37;27.77;;;;;;;16.31;100.00;99529.85;1782603;79;21045;-58
2021/09/20 03:25:08;;;;;;;29.27;26.13;;;;;;;16.40;100.00;99535.51;1781704;79;20927;-58
2021/09/20 03:27:35;;;;;;;28.07;25.17;;;;;;;16.38;100.00;99539.70;1781577;79;21082;-58
2021/09/20 03:30:03;;;;;;;30.63;27.33;;;;;;;16.32;100.00;99543.80;1747936;80;21078;-61
2021/09/20 03:32:30;;;;;;;28.63;24.10;;;;;;;16.51;100.00;99543.32;1779287;79;21667;-60
2021/09/20 03:34:56;;;;;;;29.90;26.67;;;;;;;16.62;100.00;99544.28;1719824;83;21151;-66
2021/09/20 03:37:23;;;;;;;31.93;27.30;;;;;;;16.74;100.00;99546.36;1719089;83;20990;-59
2021/09/20 03:39:50;;;;;;;31.00;26.90;;;;;;;16.93;100.00;99550.02;1776525;79;21092;-60
2021/09/20 03:42:17;;;;;;;33.93;29.43;;;;;;;17.10;100.00;99553.44;1783233;79;22266;-59
2021/09/20 03:44:43;;;;;;;37.53;30.23;;;;;;;16.85;100.00;99547.28;1747641;80;21054;-60
2021/09/20 03:47:10;;;;;;;31.93;28.40;;;;;;;17.00;100.00;99549.34;1783171;78;21200;-66
2021/09/20 03:49:38;;;;;;;32.13;26.63;;;;;;;17.13;100.00;99546.89;1776639;79;20999;-59
2021/09/20 03:52:05;;;;;;;29.47;26.27;;;;;;;17.30;100.00;99555.53;1782268;79;20977;-62
2021/09/20 03:54:33;;;;;;;28.17;23.87;;;;;;;17.21;100.00;99565.70;1777374;79;21076;-59
2021/09/20 03:56:59;;;;;;;29.67;26.63;;;;;;;17.32;100.00;99568.48;1747201;80;20891;-67
2021/09/20 03:59:26;;;;;;;28.13;25.27;;;;;;;17.25;100.00;99581.30;1786165;79;21080;-59
2021/09/20 04:01:52;;;;;;;25.80;23.30;;;;;;;17.25;100.00;99579.98;1757118;79;21338;-60
2021/09/20 04:04:19;;;;;;;27.57;24.50;;;;;;;17.06;100.00;99582.61;1761052;79;21534;-59
2021/09/20 04:06:45;;;;;;;27.00;24.20;;;;;;;17.14;100.00;99586.14;1797716;79;21075;-60
2021/09/20 04:09:12;;;;;;;26.77;24.03;;;;;;;17.31;100.00;99590.05;1796116;79;20931;-69
2021/09/20 04:11:41;;;;;;;28.80;25.90;;;;;;;17.38;100.00;99601.73;1795837;79;21187;-62
2021/09/20 04:14:08;;;;;;;29.27;26.37;;;;;;;17.68;100.00;99596.84;1799184;78;20983;-68
2021/09/20 04:16:36;;;;;;;30.73;24.43;;;;;;;17.49;100.00;99600.83;1791249;79;20923;-59
2021/09/20 04:19:05;;;;;;;28.27;24.97;;;;;;;17.47;100.00;99608.20;1795213;78;20912;-69
2021/09/20 04:21:32;;;;;;;26.50;23.90;;;;;;;17.41;100.00;99613.91;1798660;78;21007;-60
2021/09/20 04:24:00;;;;;;;26.97;24.33;;;;;;;17.23;100.00;99617.60;1803729;77;20928;-60
2021/09/20 04:26:27;;;;;;;28.47;25.53;;;;;;;17.30;100.00;99614.80;1796023;78;21415;-59
2021/09/20 04:28:55;;;;;;;30.03;26.93;;;;;;;17.35;100.00;99623.29;1802277;78;21513;-60
2021/09/20 04:31:22;;;;;;;29.03;26.13;;;;;;;17.40;100.00;99612.84;1799568;79;21038;-62
2021/09/20 04:33:48;;;;;;;28.37;25.47;;;;;;;17.32;100.00;99624.59;1796207;79;21542;-59
2021/09/20 04:36:15;;;;;;;29.30;26.30;;;;;;;17.31;100.00;99616.91;1799321;79;21139;-60
2021/09/20 04:38:41;;;;;;;26.17;23.47;;;;;;;17.36;100.00;99617.00;1800512;78;21070;-62
2021/09/20 04:41:08;;;;;;;28.60;25.60;;;;;;;17.31;100.00;99616.39;1794272;78;20921;-62
2021/09/20 04:43:34;;;;;;;30.97;25.43;;;;;;;17.27;100.00;99615.28;1799259;79;21011;-61
2021/09/20 04:46:01;;;;;;;34.20;27.60;;;;;;;17.24;100.00;99617.90;1793505;79;20972;-61
2021/09/20 04:48:28;;;;;;;30.37;27.07;;;;;;;17.24;100.00;99617.90;1806658;79;21161;-63
2021/09/20 04:50:57;;;;;;;27.87;24.10;;;;;;;17.26;100.00;99618.44;1795933;78;20973;-62
2021/09/20 04:53:22;;;;;;;29.20;26.00;;;;;;;17.12;100.00;99625.11;1805425;79;20915;-62
2021/09/20 04:55:49;;;;;;;27.10;24.20;;;;;;;17.06;100.00;99622.63;1801087;79;20928;-61
2021/09/20 04:58:16;;;;;;;28.17;24.93;;;;;;;17.05;100.00;99628.42;1794833;79;20897;-67
2021/09/20 05:00:42;;;;;;;27.90;24.60;;;;;;;17.10;100.00;99623.74;1796484;79;21098;-61
2021/09/20 05:03:09;;;;;;;27.00;24.17;;;;;;;17.16;100.00;99620.95;1785307;79;22115;-66
2021/09/20 05:05:35;;;;;;;26.80;24.03;;;;;;;17.35;100.00;99628.56;1786944;79;21533;-60
2021/09/20 05:08:02;;;;;;;25.60;22.40;;;;;;;17.26;100.00;99626.34;1781194;78;21035;-61
2021/09/20 05:10:29;;;;;;;27.63;24.73;;;;;;;17.20;100.00;99628.64;1783787;79;20876;-70
2021/09/20 05:12:56;;;;;;;27.10;24.13;;;;;;;17.20;100.00;99635.75;1744029;80;21348;-65
2021/09/20 05:15:24;;;;;;;28.63;25.67;;;;;;;17.20;100.00;99626.02;1783317;79;21042;-82
2021/09/20 05:17:52;;;;;;;27.07;24.23;;;;;;;17.16;100.00;99624.91;1782860;79;21473;-62
2021/09/20 05:20:21;;;;;;;28.87;25.87;;;;;;;17.16;100.00;99628.03;1785125;79;20972;-79
2021/09/20 05:22:49;;;;;;;26.67;23.77;;;;;;;17.18;100.00;99629.39;1745177;80;21037;-64
2021/09/20 05:25:16;;;;;;;26.77;23.97;;;;;;;17.18;100.00;99637.81;1775724;79;21149;-67
2021/09/20 05:27:43;;;;;;;26.60;23.57;;;;;;;17.16;100.00;99636.75;1746582;80;20962;-65
2021/09/20 05:30:10;;;;;;;26.97;24.17;;;;;;;17.18;100.00;99640.45;1785194;79;20947;-63
2021/09/20 05:32:36;;;;;;;27.90;24.50;;;;;;;17.28;100.00;99641.92;1786863;79;20872;-67
2021/09/20 05:35:04;;;;;;;27.00;24.17;;;;;;;17.03;100.00;99639.17;1787281;79;21094;-69
2021/09/20 05:37:32;;;;;;;25.83;23.13;;;;;;;17.02;100.00;99641.54;1786966;79;20915;-64
2021/09/20 05:39:59;;;;;;;25.73;23.03;;;;;;;17.00;100.00;99646.23;1745943;80;20929;-62
2021/09/20 05:42:28;;;;;;;25.40;22.70;;;;;;;17.00;100.00;99651.50;1783871;79;20876;-64
2021/09/20 05:44:55;;;;;;;28.73;25.80;;;;;;;17.16;100.00;99650.41;1782962;79;21082;-61
2021/09/20 05:47:21;;;;;;;26.70;23.97;;;;;;;17.09;100.00;99664.30;1781373;79;21016;-76
2021/09/20 05:49:48;;;;;;;27.33;24.00;;;;;;;17.14;100.00;99657.77;1784941;79;21283;-63
2021/09/20 05:52:14;;;;;;;24.70;22.10;;;;;;;17.10;100.00;99670.63;1785820;79;21488;-79
2021/09/20 05:54:41;;;;;;;25.87;23.20;;;;;;;17.11;100.00;99668.26;1783705;79;21279;-60
2021/09/20 05:57:07;;;;;;;24.03;21.50;;;;;;;17.12;100.00;99665.93;1745930;80;21536;-61
2021/09/20 05:59:36;;;;;;;24.00;21.53;;;;;;;17.12;100.00;99675.64;1783013;79;21039;-63
2021/09/20 06:02:03;;;;;;;25.40;21.60;;;;;;;17.12;100.00;99671.19;1783541;79;21239;-61
2021/09/20 06:04:30;;;;;;;25.23;20.60;;;;;;;17.12;100.00;99680.41;1783974;79;21034;-61
2021/09/20 06:06:57;;;;;;;22.63;20.33;;;;;;;17.19;100.00;99675.75;1783713;79;21145;-60
2021/09/20 06:09:25;;;;;;;23.60;19.50;;;;;;;17.31;100.00;99669.59;1784465;79;21015;-82
2021/09/20 06:11:51;;;;;;;21.13;18.90;;;;;;;17.43;100.00;99667.69;1780850;79;21136;-66
2021/09/20 06:14:20;;;;;;;19.30;17.30;;;;;;;17.48;100.00;99669.06;1779935;79;21149;-84
2021/09/20 06:16:48;;;;;;;18.60;16.70;;;;;;;17.43;100.00;99673.75;1780979;79;21335;-61
2021/09/20 06:19:14;;;;;;;19.50;17.43;;;;;;;17.50;100.00;99676.19;1739819;80;20987;-67
2021/09/20 06:21:42;;;;;;;20.63;17.80;;;;;;;17.79;100.00;99674.77;1773624;78;20955;-62
2021/09/20 06:24:08;;;;;;;18.03;15.17;;;;;;;17.69;100.00;99676.71;1776633;79;21320;-80
2021/09/20 06:26:35;;;;;;;18.10;16.30;;;;;;;17.67;100.00;99681.45;1775878;79;22711;-62
2021/09/20 06:29:02;;;;;;;15.87;14.30;;;;;;;17.48;100.00;99675.66;1766249;79;22329;-61
2021/09/20 06:31:28;;;;;;;17.83;15.97;;;;;;;17.41;100.00;99677.66;1774723;79;21062;-61
2021/09/20 06:33:55;;;;;;;17.30;15.40;;;;;;;17.33;100.00;99679.39;1741064;80;20932;-75
2021/09/20 06:36:23;;;;;;;16.10;14.40;;;;;;;17.24;100.00;99677.16;1772255;79;21058;-62
2021/09/20 06:38:50;;;;;;;16.83;14.70;;;;;;;17.30;100.00;99681.19;1715395;83;21168;-64
2021/09/20 06:41:16;;;;;;;16.43;14.83;;;;;;;17.21;100.00;99686.86;1778159;79;21067;-61
2021/09/20 06:43:43;;;;;;;16.50;14.50;;;;;;;17.13;100.00;99689.90;1741419;80;21011;-62
2021/09/20 06:46:09;;;;;;;15.03;13.53;;;;;;;17.08;100.00;99691.12;1777615;79;21650;-81
2021/09/20 06:48:36;;;;;;;15.40;13.80;;;;;;;17.00;100.00;99694.15;1774158;79;21022;-61
2021/09/20 06:51:02;;;;;;;13.70;12.30;;;;;;;16.97;100.00;99692.81;1741631;81;21142;-60
2021/09/20 06:53:29;;;;;;;14.23;12.23;;;;;;;16.88;100.00;99702.64;1747436;81;21524;-62
2021/09/20 06:55:55;;;;;;;12.90;11.00;;;;;;;16.85;100.00;99698.64;1779420;79;21002;-60
2021/09/20 06:58:22;;;;;;;14.53;13.03;;;;;;;16.71;100.00;99696.02;1782415;79;21489;-79
2021/09/20 07:00:50;;;;;;;14.43;12.70;;;;;;;16.69;100.00;99703.34;1746900;80;21065;-60
2021/09/20 07:03:16;;;;;;;14.10;12.70;;;;;;;16.56;100.00;99700.49;1777238;79;21122;-60
2021/09/20 07:05:43;;;;;;;12.87;11.57;;;;;;;16.48;100.00;99707.45;1759905;80;20952;-66
2021/09/20 07:08:11;;;;;;;12.83;11.53;;;;;;;16.57;100.00;99703.40;1798316;79;20925;-74
2021/09/20 07:10:37;;;;;;;13.17;11.87;;;;;;;16.49;100.00;99709.84;1806970;79;21512;-59
2021/09/20 07:13:09;;;;;;;15.03;13.43;;;;;;;16.63;100.00;99712.17;1793003;79;22598;-59
2021/09/20 07:15:32;;;;;;;14.67;13.03;;;;;;;16.67;100.00;99715.43;1804505;79;21279;-60
2021/09/20 07:17:59;;;;;;;11.40;10.20;;;;;;;16.89;100.00;99712.92;1805746;79;20998;-60
2021/09/20 07:20:25;;;;;;;12.57;11.27;;;;;;;17.00;100.00;99715.22;1792957;78;20997;-78
2021/09/20 07:22:52;;;;;;;10.47;9.37;;;;;;;17.39;100.00;99713.48;1809209;79;21551;-60
2021/09/20 07:25:19;;;;;;;13.07;11.77;;;;;;;17.82;100.00;99721.75;1801882;79;21060;-62
2021/09/20 07:27:45;;;;;;;11.33;10.13;;;;;;;18.32;100.00;99716.81;1809512;79;21132;-61
2021/09/20 07:30:17;;;;;;;11.17;9.97;;;;;;;18.88;100.00;99703.68;1796027;78;20912;-73
2021/09/20 07:32:42;;;;;;;11.03;9.93;;;;;;;19.12;100.00;99702.81;1801377;79;21331;-64
2021/09/20 07:35:10;;;;;;;10.70;9.60;;;;;;;19.20;100.00;99704.98;1796540;79;20998;-60
2021/09/20 07:37:37;;;;;;;12.63;8.97;;;;;;;19.38;100.00;99707.75;1809447;79;21649;-60
2021/09/20 07:40:26;;;;;;;10.47;9.40;;;;;;;19.50;100.00;99698.31;1798448;79;21139;-74
2021/09/20 07:42:54;;;;;;;10.93;9.93;;;;;;;19.52;100.00;99696.75;1696438;83;21634;-66
2021/09/20 07:45:21;;;;;;;10.13;9.23;;;;;;;19.52;100.00;99708.12;1698989;83;21488;-62
2021/09/20 07:47:48;;;;;;;7.77;7.03;;;;;;;19.65;100.00;99703.72;1698378;82;21121;-65
2021/09/20 07:50:15;;;;;;;8.77;6.17;;;;;;;19.88;100.00;99697.75;1698179;83;21032;-75
2021/09/20 07:52:42;;;;;;;6.90;6.20;;;;;;;20.35;100.00;99702.17;1698718;82;21151;-62
2021/09/20 07:55:09;;;;;;;9.23;6.60;;;;;;;20.69;100.00;99699.09;1697937;82;21023;-60
2021/09/20 07:57:37;;;;;;;7.70;6.90;;;;;;;21.10;100.00;99691.92;1697927;83;21105;-74
2021/09/20 08:00:05;;;;;;;7.80;7.00;;;;;;;21.26;100.00;99687.43;1698406;82;21113;-62
2021/09/20 08:02:32;;;;;;;6.80;5.90;;;;;;;21.56;100.00;99692.70;1698469;83;21028;-61
2021/09/20 08:04:58;;;;;;;6.60;5.27;;;;;;;21.89;100.00;99690.99;1698495;82;21825;-62
2021/09/20 08:07:25;;;;;;;5.57;4.93;;;;;;;21.76;100.00;99687.86;1698905;83;21129;-61
2021/09/20 08:09:51;;;;;;;6.53;5.83;;;;;;;21.54;100.00;99689.51;1697556;83;21021;-61
2021/09/20 08:12:19;;;;;;;5.90;5.30;;;;;;;21.52;100.00;99685.02;1698000;83;20998;-63
2021/09/20 08:14:47;;;;;;;5.80;5.20;;;;;;;21.74;100.00;99686.00;1697970;82;21133;-62
2021/09/20 08:17:14;;;;;;;8.00;5.70;;;;;;;22.17;100.00;99680.30;1698145;82;21148;-64
2021/09/20 08:19:42;;;;;;;6.37;5.73;;;;;;;22.46;100.00;99670.55;1698740;82;20919;-73
2021/09/20 08:22:10;;;;;;;6.20;5.40;;;;;;;22.74;100.00;99670.91;1698075;82;21177;-73
2021/09/20 08:24:36;;;;;;;6.13;5.30;;;;;;;23.28;100.00;99666.72;1697734;82;21176;-64
2021/09/20 08:27:03;;;;;;;6.27;5.67;;;;;;;23.62;100.00;99663.70;1699051;83;20995;-64
2021/09/20 08:29:31;;;;;;;6.37;5.30;;;;;;;24.07;100.00;99657.59;1698228;82;20973;-64
2021/09/20 08:31:58;;;;;;;5.42;4.92;;;;;;;24.55;100.00;99657.45;1697998;82;21101;-76
2021/09/20 08:34:24;;;;;;;5.28;4.70;;;;;;;24.88;100.00;99656.38;1698228;83;21725;-65
2021/09/20 08:36:51;;;;;;;4.80;4.30;;;;;;;25.10;100.00;99657.66;1666293;84;21210;-64
2021/09/20 08:39:17;;;;;;;6.03;4.47;;;;;;;25.36;100.00;99647.31;1698922;82;20999;-64
2021/09/20 08:41:44;;;;;;;5.53;4.55;;;;;;;25.26;100.00;99653.62;1689797;83;22449;-71
2021/09/20 08:44:12;;;;;;;4.53;3.77;;;;;;;25.07;100.00;99650.20;1677863;83;21500;-74
2021/09/20 08:46:39;;;;;;;4.95;4.28;;;;;;;25.18;100.00;99646.30;1687143;83;21119;-66
2021/09/20 08:49:07;;;;;;;4.87;4.37;;;;;;;25.59;100.00;99650.87;1678350;83;21012;-64
2021/09/20 08:51:35;;;;;;;5.42;4.15;;;;;;;25.93;100.00;99647.25;1688518;84;21253;-64
2021/09/20 08:54:03;;;;;;;5.53;4.40;;;;;;;26.27;98.13;99653.20;1686842;84;21169;-74
2021/09/20 08:56:31;;;;;;;6.33;4.60;;;;;;;26.59;95.72;99650.87;1687166;83;20969;-65
2021/09/20 08:58:57;;;;;;;5.35;4.28;;;;;;;26.81;77.19;99653.53;1689117;83;21388;-66
2021/09/20 09:01:23;;;;;;;4.65;4.00;;;;;;;26.51;77.28;99652.94;1678815;84;21530;-65
2021/09/20 09:03:50;;;;;;;5.05;4.33;;;;;;;25.90;79.01;99644.38;1679004;84;21082;-65
2021/09/20 09:06:30;;;;;;;5.92;4.72;;;;;;;25.46;88.92;99649.25;1678382;83;21174;-75
2021/09/20 09:08:58;;;;;;;5.78;5.17;;;;;;;25.48;96.16;99652.94;1678559;84;22436;-67
2021/09/20 09:11:27;;;;;;;5.45;4.35;;;;;;;25.60;86.21;99653.23;1678739;84;21513;-68
2021/09/20 09:13:55;;;;;;;5.12;4.62;;;;;;;25.41;86.52;99650.66;1659811;85;21654;-67
2021/09/20 09:16:26;;;;;;;4.67;3.90;;;;;;;25.18;90.84;99655.64;1662354;84;21513;-69
2021/09/20 09:19:03;;;;;;;4.08;3.67;;;;;;;25.04;84.96;99650.27;1676373;84;21089;-67
2021/09/20 09:21:38;;;;;;;5.22;4.30;;;;;;;24.60;92.22;99658.72;1678512;83;21050;-68
2021/09/20 09:24:12;;;;;;;5.58;4.35;;;;;;;24.29;94.37;99660.48;1678988;84;21004;-69
2021/09/20 09:26:56;;;;;;;4.97;4.47;;;;;;;24.00;97.06;99673.37;1676450;84;21533;-69
2021/09/20 09:29:23;;;;;;;5.17;4.15;;;;;;;23.63;99.30;99671.94;1679817;84;20936;-69
2021/09/20 09:31:53;;;;;;;4.70;4.20;;;;;;;23.32;100.00;99678.91;1688253;83;21104;-71
2021/09/20 09:34:26;;;;;;;7.83;4.87;;;;;;;23.08;100.00;99679.42;1679472;84;21353;-69
2021/09/20 09:37:11;;;;;;;5.17;4.67;;;;;;;22.98;100.00;99674.44;1689502;83;20940;-69
2021/09/20 09:39:38;;;;;;;4.97;4.13;;;;;;;23.08;100.00;99670.91;1659271;83;21587;-69
2021/09/20 09:42:06;;;;;;;4.37;3.97;;;;;;;22.97;100.00;99674.73;1684321;83;20963;-70
2021/09/20 09:44:34;;;;;;;4.97;4.10;;;;;;;22.97;100.00;99676.06;1689391;84;21120;-70
2021/09/20 09:47:00;;;;;;;4.20;3.80;;;;;;;23.01;100.00;99673.89;1688942;83;21087;-70
2021/09/20 09:49:28;;;;;;;4.23;3.80;;;;;;;23.36;100.00;99669.84;1689241;84;20950;-71
2021/09/20 09:52:10;;;;;;;5.37;4.17;;;;;;;23.79;100.00;99660.09;1686086;84;21013;-71
2021/09/20 09:54:40;;;;;;;4.63;3.93;;;;;;;24.26;97.81;99660.52;1689392;84;21105;-71
2021/09/20 09:57:19;;;;;;;4.80;4.30;;;;;;;24.54;86.40;99653.21;1689695;84;21128;-70
2021/09/20 09:59:59;;;;;;;4.53;3.93;;;;;;;24.84;77.14;99659.39;1644644;84;21182;-69
2021/09/20 10:02:30;;;;;;;4.63;4.10;;;;;;;24.38;79.25;99658.74;1689068;84;21049;-70
2021/09/20 10:05:03;;;;;;;5.47;4.53;;;;;;;24.22;83.35;99660.05;1688888;84;21048;-70
2021/09/20 10:07:40;;;;;;;5.10;4.37;;;;;;;23.99;77.41;99663.81;1688162;84;21106;-70
2021/09/20 10:10:14;;;;;;;7.50;4.77;;;;;;;23.63;83.90;99653.31;1688416;84;21113;-70
2021/09/20 10:12:42;;;;;;;4.87;4.33;;;;;;;23.36;87.04;99664.52;1686807;84;21116;-69
2021/09/20 10:15:14;;;;;;;4.93;4.43;;;;;;;22.93;88.76;99660.41;1688067;84;21005;-71
2021/09/20 10:17:41;;;;;;;5.23;4.50;;;;;;;22.85;92.89;99651.15;1687052;84;21164;-69
2021/09/20 10:20:13;;;;;;;5.20;4.70;;;;;;;22.75;90.06;99651.22;1688566;84;21057;-69
2021/09/20 10:22:41;;;;;;;5.75;4.50;;;;;;;22.40;98.32;99654.94;1687412;84;22218;-69
2021/09/20 10:25:12;;;;;;;6.57;4.90;;;;;;;22.42;97.71;99647.48;1683818;84;21077;-72
2021/09/20 10:27:39;;;;;;;5.50;4.70;;;;;;;22.34;100.00;99652.84;1652873;86;21173;-69
2021/09/20 10:30:25;;;;;;;5.70;4.90;;;;;;;22.29;100.00;99647.03;1658180;86;21066;-72
2021/09/20 10:33:06;;;;;;;7.70;4.97;;;;;;;22.63;100.00;99650.80;1677947;84;20923;-72
2021/09/20 10:35:39;;;;;;;5.53;4.97;;;;;;;23.24;97.60;99644.97;1688590;84;21825;-72
2021/09/20 10:38:28;;;;;;;5.00;4.27;;;;;;;23.73;85.96;99637.27;1687586;84;21090;-69
2021/09/20 10:41:20;;;;;;;5.40;4.87;;;;;;;23.99;78.52;99631.87;1687127;84;21069;-68
2021/09/20 10:44:08;;;;;;;6.00;5.40;;;;;;;24.02;80.91;99639.83;1694391;83;21043;-72
2021/09/20 10:46:38;;;;;;;6.23;5.00;;;;;;;23.87;72.38;99636.04;1686179;84;21000;-69
2021/09/20 10:49:10;;;;;;;6.57;5.37;;;;;;;23.37;73.61;99646.94;1686252;84;21106;-68
2021/09/20 10:51:39;;;;;;;7.43;5.40;;;;;;;23.06;79.80;99649.91;1682688;84;21006;-73
2021/09/20 10:54:22;;;;;;;5.93;5.17;;;;;;;22.96;85.35;99640.72;1684258;83;21093;-71
2021/09/20 10:57:18;;;;;;;5.37;4.87;;;;;;;23.09;85.45;99636.59;1684190;84;21070;-68
2021/09/20 10:59:45;;;;;;;5.53;5.00;;;;;;;23.52;74.97;99632.68;1685834;83;21132;-68
2021/09/20 11:02:19;;;;;;;5.20;4.33;;;;;;;23.80;71.95;99627.06;1685094;84;21571;-70
2021/09/20 11:04:46;;;;;;;5.00;4.50;;;;;;;24.08;65.70;99623.23;1682585;84;20970;-71
2021/09/20 11:07:19;;;;;;;6.30;5.23;;;;;;;24.21;63.31;99630.52;1684724;84;20962;-69
2021/09/20 11:09:49;;;;;;;7.57;5.33;;;;;;;24.30;59.65;99615.45;1682737;84;21553;-71
2021/09/20 11:12:25;;;;;;;5.63;4.60;;;;;;;23.92;58.15;99634.09;1685186;84;21118;-70
2021/09/20 11:15:04;;;;;;;5.07;4.57;;;;;;;23.56;63.27;99631.03;1684158;84;20940;-68
2021/09/20 11:17:44;;;;;;;7.43;4.90;;;;;;;23.61;60.01;99626.22;1685182;83;21330;-69
2021/09/20 11:20:25;;;;;;;5.73;4.30;;;;;;;23.58;58.59;99622.24;1684589;84;21026;-72
2021/09/20 11:23:16;;;;;;;5.95;4.40;;;;;;;23.36;60.50;99624.62;1683662;83;22343;-72